الصفحة الرئيسية
METAR-TAF:

METAR-TAF

مطار :

قاعدة الملك عبد العزيز الجوية

الظهران, السعودية

دائرة عرض: 26-16N, خط طول: 050-09E, ارتفاع: 26 متر

مراقبة الطقس الحالي

تاريخ ووقت الإصدار 37 دقيقة قبل الساعة 05:00UTC
ريح 13 عقدة من الغرب/الشمال الغربي
درجة الحرارة 36°درجة مئوية
الرطوبة 22%
ضغط 1003 hPa
الرؤية 10 كم أو أكثر
الغيوم لا تقل 1500 م ولا وجود لمزنة ركامية السحاب الأسود

METAR: OEDR 010500Z 29013KT CAVOK 36/11 Q1003 NOSIG

زمن: 08:37 (05:37 UTC)

توقعات

تاريخ ووقت الإصدار 9ساعات و 7 دقيقة قبل الساعة 20:30UTC
التوقعات صالحة من01 الساعة 00 UTC إلى 02 الساعة 06 UTC
ريح 7 عقدة من الغرب/الشمال الغربي
الرؤية 10 كم أو أكثر
الغيوم لا تقل 1500 م ولا وجود لمزنة ركامية السحاب الأسود
أصبح
من 01 الساعة 08 UTC إلى 01 الساعة 10 UTC
ريح 14 عقدة من الشمال/الشمال الشرقي
أصبح
من 01 الساعة 18 UTC إلى 01 الساعة 20 UTC
ريح 3 عقدةمن اتجاهات متغيرة
الرؤية: 7000 متر

TAF: OEDR 312030Z 0100/0206 30007KT CAVOK BECMG 0108/0110 03014KT BECMG 0118/0120 VRB03KT 7000 NSC

أرصاد الطقس والتوقعات من أكثر من 4000 مطار (تقارير الطقس للمطار METAR والتنبؤ بالطقس بالمطارTAF).

المحطات المتاحة هي النقط الصفراء والحمراء على الخريطة.

حرك المؤشر فوق النقطة لمعرفة اسم المحطة.

ثم انقر لمعرفة أرصاد وتوقعات الطقس.

لتغيير الخارطة: اضغط على الأزرار الخضراء مع رمز الصليب الأسود للتكبير. على الزر الأخضر مع شرطة للتصغير، أو على الأسهم الخضراء للخرائط المجاورة.


METAR-TAF: